sensor_id;sensor_type;location;lat;lon;timestamp;P1;durP1;ratioP1;P2;durP2;ratioP2
4311;SDS011;2169;49.086;9.284;2022-08-24T00:01:12;4.80;;;1.60;;
4311;SDS011;2169;49.086;9.284;2022-08-24T00:03:41;1.50;;;1.40;;
4311;SDS011;2169;49.086;9.284;2022-08-24T00:06:09;2.60;;;1.67;;
4311;SDS011;2169;49.086;9.284;2022-08-24T00:08:40;2.03;;;1.77;;
4311;SDS011;2169;49.086;9.284;2022-08-24T00:11:07;1.90;;;1.27;;
4311;SDS011;2169;49.086;9.284;2022-08-24T00:13:34;1.23;;;1.13;;
4311;SDS011;2169;49.086;9.284;2022-08-24T00:16:04;1.50;;;1.40;;
4311;SDS011;2169;49.086;9.284;2022-08-24T00:18:31;1.57;;;1.03;;
4311;SDS011;2169;49.086;9.284;2022-08-24T00:20:58;3.13;;;1.77;;
4311;SDS011;2169;49.086;9.284;2022-08-24T00:23:26;2.23;;;1.60;;
4311;SDS011;2169;49.086;9.284;2022-08-24T00:25:53;1.60;;;1.27;;
4311;SDS011;2169;49.086;9.284;2022-08-24T00:28:20;4.90;;;1.83;;
4311;SDS011;2169;49.086;9.284;2022-08-24T00:30:47;4.40;;;1.30;;
4311;SDS011;2169;49.086;9.284;2022-08-24T00:33:15;1.27;;;1.23;;
4311;SDS011;2169;49.086;9.284;2022-08-24T00:35:42;1.20;;;1.10;;
4311;SDS011;2169;49.086;9.284;2022-08-24T00:38:09;2.03;;;1.17;;
4311;SDS011;2169;49.086;9.284;2022-08-24T00:40:38;1.43;;;1.20;;
4311;SDS011;2169;49.086;9.284;2022-08-24T00:43:06;1.83;;;1.40;;
4311;SDS011;2169;49.086;9.284;2022-08-24T00:45:36;1.20;;;1.00;;
4311;SDS011;2169;49.086;9.284;2022-08-24T00:48:10;6.90;;;1.23;;
4311;SDS011;2169;49.086;9.284;2022-08-24T00:50:44;2.27;;;1.60;;
4311;SDS011;2169;49.086;9.284;2022-08-24T00:53:15;3.03;;;1.80;;
4311;SDS011;2169;49.086;9.284;2022-08-24T00:55:48;1.87;;;1.27;;
4311;SDS011;2169;49.086;9.284;2022-08-24T00:58:19;1.07;;;1.07;;
4311;SDS011;2169;49.086;9.284;2022-08-24T01:00:50;1.70;;;0.93;;
4311;SDS011;2169;49.086;9.284;2022-08-24T01:03:20;2.87;;;2.23;;
4311;SDS011;2169;49.086;9.284;2022-08-24T01:05:49;1.17;;;1.07;;
4311;SDS011;2169;49.086;9.284;2022-08-24T01:08:16;1.07;;;1.07;;
4311;SDS011;2169;49.086;9.284;2022-08-24T01:10:48;1.93;;;1.10;;
4311;SDS011;2169;49.086;9.284;2022-08-24T01:13:17;5.10;;;1.20;;
4311;SDS011;2169;49.086;9.284;2022-08-24T01:15:45;12.20;;;1.73;;
4311;SDS011;2169;49.086;9.284;2022-08-24T01:18:15;2.20;;;1.60;;
4311;SDS011;2169;49.086;9.284;2022-08-24T01:21:02;5.97;;;1.00;;
4311;SDS011;2169;49.086;9.284;2022-08-24T01:23:37;1.67;;;1.57;;
4311;SDS011;2169;49.086;9.284;2022-08-24T01:26:07;1.60;;;1.50;;
4311;SDS011;2169;49.086;9.284;2022-08-24T01:28:37;1.60;;;1.50;;
4311;SDS011;2169;49.086;9.284;2022-08-24T01:31:06;2.70;;;1.90;;
4311;SDS011;2169;49.086;9.284;2022-08-24T01:33:33;2.17;;;1.67;;
4311;SDS011;2169;49.086;9.284;2022-08-24T01:36:00;2.13;;;1.20;;
4311;SDS011;2169;49.086;9.284;2022-08-24T01:38:33;1.63;;;1.40;;
4311;SDS011;2169;49.086;9.284;2022-08-24T01:41:02;2.30;;;1.67;;
4311;SDS011;2169;49.086;9.284;2022-08-24T01:43:29;3.57;;;1.87;;
4311;SDS011;2169;49.086;9.284;2022-08-24T01:45:56;1.33;;;1.17;;
4311;SDS011;2169;49.086;9.284;2022-08-24T01:48:23;5.20;;;1.43;;
4311;SDS011;2169;49.086;9.284;2022-08-24T01:50:50;2.60;;;0.80;;
4311;SDS011;2169;49.086;9.284;2022-08-24T01:53:17;1.83;;;1.13;;
4311;SDS011;2169;49.086;9.284;2022-08-24T01:55:44;1.23;;;1.10;;
4311;SDS011;2169;49.086;9.284;2022-08-24T01:58:14;2.17;;;1.70;;
4311;SDS011;2169;49.086;9.284;2022-08-24T02:00:41;1.03;;;1.03;;
4311;SDS011;2169;49.086;9.284;2022-08-24T02:03:09;6.93;;;1.73;;
4311;SDS011;2169;49.086;9.284;2022-08-24T02:05:36;2.10;;;0.97;;
4311;SDS011;2169;49.086;9.284;2022-08-24T02:08:03;3.00;;;2.73;;
4311;SDS011;2169;49.086;9.284;2022-08-24T02:10:30;2.70;;;1.40;;
4311;SDS011;2169;49.086;9.284;2022-08-24T02:12:58;3.13;;;2.57;;
4311;SDS011;2169;49.086;9.284;2022-08-24T02:15:27;2.90;;;2.70;;
4311;SDS011;2169;49.086;9.284;2022-08-24T02:17:56;2.13;;;1.90;;
4311;SDS011;2169;49.086;9.284;2022-08-24T02:20:23;1.63;;;1.53;;
4311;SDS011;2169;49.086;9.284;2022-08-24T02:22:51;1.00;;;0.97;;
4311;SDS011;2169;49.086;9.284;2022-08-24T02:25:18;1.53;;;1.43;;
4311;SDS011;2169;49.086;9.284;2022-08-24T02:27:46;5.60;;;1.37;;
4311;SDS011;2169;49.086;9.284;2022-08-24T02:30:13;2.13;;;1.37;;
4311;SDS011;2169;49.086;9.284;2022-08-24T02:32:41;1.10;;;1.10;;
4311;SDS011;2169;49.086;9.284;2022-08-24T02:35:08;1.40;;;1.33;;
4311;SDS011;2169;49.086;9.284;2022-08-24T02:37:36;3.53;;;1.63;;
4311;SDS011;2169;49.086;9.284;2022-08-24T02:40:03;1.30;;;1.20;;
4311;SDS011;2169;49.086;9.284;2022-08-24T02:42:31;1.67;;;1.57;;
4311;SDS011;2169;49.086;9.284;2022-08-24T02:44:58;1.57;;;1.10;;
4311;SDS011;2169;49.086;9.284;2022-08-24T02:47:25;1.70;;;1.50;;
4311;SDS011;2169;49.086;9.284;2022-08-24T02:49:54;1.43;;;1.33;;
4311;SDS011;2169;49.086;9.284;2022-08-24T02:52:21;1.50;;;1.40;;
4311;SDS011;2169;49.086;9.284;2022-08-24T02:54:48;2.60;;;1.47;;
4311;SDS011;2169;49.086;9.284;2022-08-24T02:57:15;2.10;;;2.00;;
4311;SDS011;2169;49.086;9.284;2022-08-24T02:59:41;5.07;;;2.60;;
4311;SDS011;2169;49.086;9.284;2022-08-24T03:02:08;3.87;;;1.80;;
4311;SDS011;2169;49.086;9.284;2022-08-24T03:04:35;2.60;;;1.83;;
4311;SDS011;2169;49.086;9.284;2022-08-24T03:07:04;2.27;;;2.07;;
4311;SDS011;2169;49.086;9.284;2022-08-24T03:09:31;1.50;;;1.40;;
4311;SDS011;2169;49.086;9.284;2022-08-24T03:11:58;3.33;;;1.20;;
4311;SDS011;2169;49.086;9.284;2022-08-24T03:14:24;5.03;;;1.57;;
4311;SDS011;2169;49.086;9.284;2022-08-24T03:16:51;1.37;;;1.30;;
4311;SDS011;2169;49.086;9.284;2022-08-24T03:19:18;1.87;;;1.70;;
4311;SDS011;2169;49.086;9.284;2022-08-24T03:21:46;1.27;;;1.27;;
4311;SDS011;2169;49.086;9.284;2022-08-24T03:24:14;2.20;;;2.10;;
4311;SDS011;2169;49.086;9.284;2022-08-24T03:26:41;1.50;;;1.50;;
4311;SDS011;2169;49.086;9.284;2022-08-24T03:29:08;4.93;;;1.63;;
4311;SDS011;2169;49.086;9.284;2022-08-24T03:31:34;1.43;;;1.40;;
4311;SDS011;2169;49.086;9.284;2022-08-24T03:34:01;2.80;;;2.07;;
4311;SDS011;2169;49.086;9.284;2022-08-24T03:36:29;1.80;;;1.47;;
4311;SDS011;2169;49.086;9.284;2022-08-24T03:38:56;2.30;;;1.67;;
4311;SDS011;2169;49.086;9.284;2022-08-24T03:41:24;3.63;;;1.47;;
4311;SDS011;2169;49.086;9.284;2022-08-24T03:43:51;2.80;;;1.30;;
4311;SDS011;2169;49.086;9.284;2022-08-24T03:46:21;1.90;;;1.80;;
4311;SDS011;2169;49.086;9.284;2022-08-24T03:48:52;1.53;;;1.37;;
4311;SDS011;2169;49.086;9.284;2022-08-24T03:51:21;1.47;;;1.37;;
4311;SDS011;2169;49.086;9.284;2022-08-24T03:53:49;1.77;;;1.40;;
4311;SDS011;2169;49.086;9.284;2022-08-24T03:56:17;1.53;;;1.43;;
4311;SDS011;2169;49.086;9.284;2022-08-24T03:58:45;1.67;;;1.57;;
4311;SDS011;2169;49.086;9.284;2022-08-24T04:01:13;4.83;;;2.00;;
4311;SDS011;2169;49.086;9.284;2022-08-24T04:03:42;2.47;;;2.27;;
4311;SDS011;2169;49.086;9.284;2022-08-24T04:06:11;5.70;;;2.03;;
4311;SDS011;2169;49.086;9.284;2022-08-24T04:08:40;1.80;;;1.70;;
4311;SDS011;2169;49.086;9.284;2022-08-24T04:11:08;2.20;;;1.90;;
4311;SDS011;2169;49.086;9.284;2022-08-24T04:13:35;4.70;;;1.70;;
4311;SDS011;2169;49.086;9.284;2022-08-24T04:16:04;1.87;;;1.77;;
4311;SDS011;2169;49.086;9.284;2022-08-24T04:18:32;1.80;;;1.70;;
4311;SDS011;2169;49.086;9.284;2022-08-24T04:20:59;3.63;;;2.20;;
4311;SDS011;2169;49.086;9.284;2022-08-24T04:23:26;1.73;;;1.50;;
4311;SDS011;2169;49.086;9.284;2022-08-24T04:25:53;2.17;;;2.07;;
4311;SDS011;2169;49.086;9.284;2022-08-24T04:28:20;2.20;;;2.10;;
4311;SDS011;2169;49.086;9.284;2022-08-24T04:30:48;1.43;;;1.33;;
4311;SDS011;2169;49.086;9.284;2022-08-24T04:33:17;2.30;;;2.17;;
4311;SDS011;2169;49.086;9.284;2022-08-24T04:35:45;2.87;;;2.43;;
4311;SDS011;2169;49.086;9.284;2022-08-24T04:38:13;10.80;;;2.13;;
4311;SDS011;2169;49.086;9.284;2022-08-24T04:40:42;17.53;;;2.00;;
4311;SDS011;2169;49.086;9.284;2022-08-24T04:43:11;3.10;;;2.60;;
4311;SDS011;2169;49.086;9.284;2022-08-24T04:45:39;2.10;;;2.00;;
4311;SDS011;2169;49.086;9.284;2022-08-24T04:48:07;7.97;;;2.63;;
4311;SDS011;2169;49.086;9.284;2022-08-24T04:50:36;2.87;;;1.90;;
4311;SDS011;2169;49.086;9.284;2022-08-24T04:53:04;1.93;;;1.83;;
4311;SDS011;2169;49.086;9.284;2022-08-24T04:55:32;2.30;;;2.20;;
4311;SDS011;2169;49.086;9.284;2022-08-24T04:58:07;2.43;;;2.33;;
4311;SDS011;2169;49.086;9.284;2022-08-24T05:00:35;2.93;;;2.50;;
4311;SDS011;2169;49.086;9.284;2022-08-24T05:03:02;1.60;;;1.50;;
4311;SDS011;2169;49.086;9.284;2022-08-24T05:05:29;2.50;;;2.40;;
4311;SDS011;2169;49.086;9.284;2022-08-24T05:07:57;2.50;;;1.97;;
4311;SDS011;2169;49.086;9.284;2022-08-24T05:10:24;3.80;;;2.30;;
4311;SDS011;2169;49.086;9.284;2022-08-24T05:12:51;2.33;;;2.03;;
4311;SDS011;2169;49.086;9.284;2022-08-24T05:15:18;2.47;;;2.37;;
4311;SDS011;2169;49.086;9.284;2022-08-24T05:17:45;2.07;;;1.83;;
4311;SDS011;2169;49.086;9.284;2022-08-24T05:20:12;2.97;;;2.20;;
4311;SDS011;2169;49.086;9.284;2022-08-24T05:22:38;2.20;;;2.00;;
4311;SDS011;2169;49.086;9.284;2022-08-24T05:25:08;2.20;;;2.10;;
4311;SDS011;2169;49.086;9.284;2022-08-24T05:27:36;6.00;;;2.53;;
4311;SDS011;2169;49.086;9.284;2022-08-24T05:30:04;1.77;;;1.70;;
4311;SDS011;2169;49.086;9.284;2022-08-24T05:32:31;3.10;;;2.90;;
4311;SDS011;2169;49.086;9.284;2022-08-24T05:34:58;2.70;;;1.90;;
4311;SDS011;2169;49.086;9.284;2022-08-24T05:37:29;11.43;;;2.23;;
4311;SDS011;2169;49.086;9.284;2022-08-24T05:39:57;2.70;;;2.27;;
4311;SDS011;2169;49.086;9.284;2022-08-24T05:42:27;4.07;;;1.50;;
4311;SDS011;2169;49.086;9.284;2022-08-24T05:44:54;2.07;;;1.87;;
4311;SDS011;2169;49.086;9.284;2022-08-24T05:47:21;2.67;;;2.33;;
4311;SDS011;2169;49.086;9.284;2022-08-24T05:49:48;2.33;;;2.10;;
4311;SDS011;2169;49.086;9.284;2022-08-24T05:52:17;2.43;;;2.23;;
4311;SDS011;2169;49.086;9.284;2022-08-24T05:54:44;2.93;;;2.63;;
4311;SDS011;2169;49.086;9.284;2022-08-24T05:57:11;2.30;;;2.20;;
4311;SDS011;2169;49.086;9.284;2022-08-24T05:59:41;12.03;;;2.87;;
4311;SDS011;2169;49.086;9.284;2022-08-24T06:02:08;3.03;;;2.37;;
4311;SDS011;2169;49.086;9.284;2022-08-24T06:04:36;3.77;;;3.47;;
4311;SDS011;2169;49.086;9.284;2022-08-24T06:07:04;5.97;;;2.70;;
4311;SDS011;2169;49.086;9.284;2022-08-24T06:09:33;3.20;;;2.80;;
4311;SDS011;2169;49.086;9.284;2022-08-24T06:12:00;1.90;;;1.80;;
4311;SDS011;2169;49.086;9.284;2022-08-24T06:14:27;4.50;;;3.47;;
4311;SDS011;2169;49.086;9.284;2022-08-24T06:16:55;3.47;;;2.00;;
4311;SDS011;2169;49.086;9.284;2022-08-24T06:19:22;2.03;;;1.93;;
4311;SDS011;2169;49.086;9.284;2022-08-24T06:21:51;5.03;;;2.70;;
4311;SDS011;2169;49.086;9.284;2022-08-24T06:24:19;3.47;;;3.20;;
4311;SDS011;2169;49.086;9.284;2022-08-24T06:27:08;3.40;;;2.90;;
4311;SDS011;2169;49.086;9.284;2022-08-24T06:29:47;8.73;;;2.43;;
4311;SDS011;2169;49.086;9.284;2022-08-24T06:32:15;3.07;;;1.73;;
4311;SDS011;2169;49.086;9.284;2022-08-24T06:34:43;2.93;;;2.13;;
4311;SDS011;2169;49.086;9.284;2022-08-24T06:37:09;1.60;;;1.57;;
4311;SDS011;2169;49.086;9.284;2022-08-24T06:39:36;10.30;;;1.93;;
4311;SDS011;2169;49.086;9.284;2022-08-24T06:42:03;4.70;;;2.50;;
4311;SDS011;2169;49.086;9.284;2022-08-24T06:44:30;3.23;;;1.80;;
4311;SDS011;2169;49.086;9.284;2022-08-24T06:46:57;4.17;;;2.60;;
4311;SDS011;2169;49.086;9.284;2022-08-24T06:49:25;2.60;;;2.40;;
4311;SDS011;2169;49.086;9.284;2022-08-24T06:51:52;7.30;;;1.87;;
4311;SDS011;2169;49.086;9.284;2022-08-24T06:54:19;3.30;;;2.13;;
4311;SDS011;2169;49.086;9.284;2022-08-24T06:56:46;5.20;;;2.70;;
4311;SDS011;2169;49.086;9.284;2022-08-24T06:59:13;5.57;;;2.10;;
4311;SDS011;2169;49.086;9.284;2022-08-24T07:01:40;4.90;;;2.40;;
4311;SDS011;2169;49.086;9.284;2022-08-24T07:04:06;2.80;;;2.47;;
4311;SDS011;2169;49.086;9.284;2022-08-24T07:06:35;4.93;;;2.40;;
4311;SDS011;2169;49.086;9.284;2022-08-24T07:09:02;8.00;;;2.30;;
4311;SDS011;2169;49.086;9.284;2022-08-24T07:11:29;1.63;;;1.53;;
4311;SDS011;2169;49.086;9.284;2022-08-24T07:13:56;1.87;;;1.53;;
4311;SDS011;2169;49.086;9.284;2022-08-24T07:16:23;2.53;;;1.50;;
4311;SDS011;2169;49.086;9.284;2022-08-24T07:18:50;8.07;;;1.53;;
4311;SDS011;2169;49.086;9.284;2022-08-24T07:21:17;1.87;;;1.50;;
4311;SDS011;2169;49.086;9.284;2022-08-24T07:23:46;4.00;;;2.33;;
4311;SDS011;2169;49.086;9.284;2022-08-24T07:26:14;5.70;;;1.70;;
4311;SDS011;2169;49.086;9.284;2022-08-24T07:28:44;1.90;;;1.67;;
4311;SDS011;2169;49.086;9.284;2022-08-24T07:31:11;3.10;;;2.10;;
4311;SDS011;2169;49.086;9.284;2022-08-24T07:33:38;4.73;;;1.80;;
4311;SDS011;2169;49.086;9.284;2022-08-24T07:36:05;1.53;;;1.30;;
4311;SDS011;2169;49.086;9.284;2022-08-24T07:38:31;1.20;;;1.20;;
4311;SDS011;2169;49.086;9.284;2022-08-24T07:41:00;4.77;;;1.80;;
4311;SDS011;2169;49.086;9.284;2022-08-24T07:43:27;2.43;;;1.90;;
4311;SDS011;2169;49.086;9.284;2022-08-24T07:45:54;1.20;;;1.20;;
4311;SDS011;2169;49.086;9.284;2022-08-24T07:48:21;6.23;;;1.93;;
4311;SDS011;2169;49.086;9.284;2022-08-24T07:50:48;4.90;;;1.20;;
4311;SDS011;2169;49.086;9.284;2022-08-24T07:53:14;1.43;;;1.33;;
4311;SDS011;2169;49.086;9.284;2022-08-24T07:55:41;1.47;;;1.37;;
4311;SDS011;2169;49.086;9.284;2022-08-24T07:58:10;4.67;;;1.27;;
4311;SDS011;2169;49.086;9.284;2022-08-24T08:00:37;1.80;;;1.57;;
4311;SDS011;2169;49.086;9.284;2022-08-24T08:03:03;1.53;;;1.43;;
4311;SDS011;2169;49.086;9.284;2022-08-24T08:05:30;1.67;;;1.10;;
4311;SDS011;2169;49.086;9.284;2022-08-24T08:07:57;1.87;;;1.37;;
4311;SDS011;2169;49.086;9.284;2022-08-24T08:10:24;1.10;;;1.10;;
4311;SDS011;2169;49.086;9.284;2022-08-24T08:12:54;2.10;;;1.80;;
4311;SDS011;2169;49.086;9.284;2022-08-24T08:15:22;5.13;;;1.10;;
4311;SDS011;2169;49.086;9.284;2022-08-24T08:17:50;1.00;;;1.00;;
4311;SDS011;2169;49.086;9.284;2022-08-24T08:20:17;0.90;;;0.90;;
4311;SDS011;2169;49.086;9.284;2022-08-24T08:22:44;1.87;;;1.57;;
4311;SDS011;2169;49.086;9.284;2022-08-24T08:25:28;1.27;;;1.27;;
4311;SDS011;2169;49.086;9.284;2022-08-24T08:27:55;5.70;;;1.00;;
4311;SDS011;2169;49.086;9.284;2022-08-24T08:30:24;1.43;;;1.43;;
4311;SDS011;2169;49.086;9.284;2022-08-24T08:32:50;0.77;;;0.77;;
4311;SDS011;2169;49.086;9.284;2022-08-24T08:35:17;1.60;;;0.70;;
4311;SDS011;2169;49.086;9.284;2022-08-24T08:37:44;1.00;;;1.00;;
4311;SDS011;2169;49.086;9.284;2022-08-24T08:43:07;0.60;;;0.60;;
4311;SDS011;2169;49.086;9.284;2022-08-24T08:45:44;0.80;;;0.80;;
4311;SDS011;2169;49.086;9.284;2022-08-24T08:48:42;1.30;;;0.97;;
4311;SDS011;2169;49.086;9.284;2022-08-24T08:51:40;1.67;;;0.90;;
4311;SDS011;2169;49.086;9.284;2022-08-24T08:54:29;1.03;;;1.03;;
4311;SDS011;2169;49.086;9.284;2022-08-24T08:57:13;0.70;;;0.70;;
4311;SDS011;2169;49.086;9.284;2022-08-24T08:59:55;1.33;;;0.67;;
4311;SDS011;2169;49.086;9.284;2022-08-24T09:02:47;0.80;;;0.80;;
4311;SDS011;2169;49.086;9.284;2022-08-24T09:05:47;2.60;;;1.10;;
4311;SDS011;2169;49.086;9.284;2022-08-24T09:08:40;7.10;;;0.90;;
4311;SDS011;2169;49.086;9.284;2022-08-24T09:11:27;0.70;;;0.70;;
4311;SDS011;2169;49.086;9.284;2022-08-24T09:14:04;5.60;;;1.23;;
4311;SDS011;2169;49.086;9.284;2022-08-24T09:17:04;1.03;;;0.80;;
4311;SDS011;2169;49.086;9.284;2022-08-24T09:19:49;6.33;;;0.90;;
4311;SDS011;2169;49.086;9.284;2022-08-24T09:22:31;0.80;;;0.70;;
4311;SDS011;2169;49.086;9.284;2022-08-24T09:25:09;0.60;;;0.60;;
4311;SDS011;2169;49.086;9.284;2022-08-24T09:27:51;0.87;;;0.80;;
4311;SDS011;2169;49.086;9.284;2022-08-24T09:30:31;0.70;;;0.60;;
4311;SDS011;2169;49.086;9.284;2022-08-24T09:33:19;2.60;;;0.80;;
4311;SDS011;2169;49.086;9.284;2022-08-24T09:36:01;3.50;;;1.00;;
4311;SDS011;2169;49.086;9.284;2022-08-24T09:38:43;0.60;;;0.60;;
4311;SDS011;2169;49.086;9.284;2022-08-24T09:41:30;0.50;;;0.50;;
4311;SDS011;2169;49.086;9.284;2022-08-24T09:44:15;3.37;;;0.80;;
4311;SDS011;2169;49.086;9.284;2022-08-24T09:49:58;11.03;;;3.23;;
4311;SDS011;2169;49.086;9.284;2022-08-24T09:56:08;0.90;;;0.80;;
4311;SDS011;2169;49.086;9.284;2022-08-24T09:59:10;0.50;;;0.50;;
4311;SDS011;2169;49.086;9.284;2022-08-24T10:01:49;0.83;;;0.60;;
4311;SDS011;2169;49.086;9.284;2022-08-24T10:04:27;1.23;;;1.13;;
4311;SDS011;2169;49.086;9.284;2022-08-24T10:07:05;1.03;;;1.00;;
4311;SDS011;2169;49.086;9.284;2022-08-24T10:12:40;1.00;;;0.80;;
4311;SDS011;2169;49.086;9.284;2022-08-24T10:15:18;0.83;;;0.63;;
4311;SDS011;2169;49.086;9.284;2022-08-24T10:18:03;0.80;;;0.63;;
4311;SDS011;2169;49.086;9.284;2022-08-24T10:20:50;4.87;;;0.80;;
4311;SDS011;2169;49.086;9.284;2022-08-24T10:23:33;0.60;;;0.60;;
4311;SDS011;2169;49.086;9.284;2022-08-24T10:26:12;0.80;;;0.80;;
4311;SDS011;2169;49.086;9.284;2022-08-24T10:28:52;0.50;;;0.50;;
4311;SDS011;2169;49.086;9.284;2022-08-24T10:31:33;0.97;;;0.90;;
4311;SDS011;2169;49.086;9.284;2022-08-24T10:34:11;1.77;;;0.80;;
4311;SDS011;2169;49.086;9.284;2022-08-24T10:40:03;2.10;;;1.10;;
4311;SDS011;2169;49.086;9.284;2022-08-24T10:42:52;2.30;;;0.90;;
4311;SDS011;2169;49.086;9.284;2022-08-24T10:48:56;0.80;;;0.67;;
4311;SDS011;2169;49.086;9.284;2022-08-24T10:51:42;1.17;;;0.83;;
4311;SDS011;2169;49.086;9.284;2022-08-24T10:54:29;2.13;;;0.80;;
4311;SDS011;2169;49.086;9.284;2022-08-24T10:57:00;1.57;;;1.00;;
4311;SDS011;2169;49.086;9.284;2022-08-24T10:59:35;0.80;;;0.80;;
4311;SDS011;2169;49.086;9.284;2022-08-24T11:02:25;0.90;;;0.90;;
4311;SDS011;2169;49.086;9.284;2022-08-24T11:04:55;1.93;;;1.17;;
4311;SDS011;2169;49.086;9.284;2022-08-24T11:07:23;0.87;;;0.87;;
4311;SDS011;2169;49.086;9.284;2022-08-24T11:09:50;0.90;;;0.90;;
4311;SDS011;2169;49.086;9.284;2022-08-24T11:12:21;1.83;;;0.80;;
4311;SDS011;2169;49.086;9.284;2022-08-24T11:14:52;1.20;;;1.10;;
4311;SDS011;2169;49.086;9.284;2022-08-24T11:17:21;6.93;;;0.90;;
4311;SDS011;2169;49.086;9.284;2022-08-24T11:19:50;2.10;;;0.80;;
4311;SDS011;2169;49.086;9.284;2022-08-24T11:22:24;0.70;;;0.70;;
4311;SDS011;2169;49.086;9.284;2022-08-24T11:24:57;0.70;;;0.60;;
4311;SDS011;2169;49.086;9.284;2022-08-24T11:27:28;0.70;;;0.70;;
4311;SDS011;2169;49.086;9.284;2022-08-24T11:30:01;1.27;;;0.73;;
4311;SDS011;2169;49.086;9.284;2022-08-24T11:32:36;1.47;;;1.37;;
4311;SDS011;2169;49.086;9.284;2022-08-24T11:35:08;1.53;;;0.70;;
4311;SDS011;2169;49.086;9.284;2022-08-24T11:37:42;0.80;;;0.80;;
4311;SDS011;2169;49.086;9.284;2022-08-24T11:40:10;0.90;;;0.90;;
4311;SDS011;2169;49.086;9.284;2022-08-24T11:42:47;2.50;;;0.90;;
4311;SDS011;2169;49.086;9.284;2022-08-24T11:45:33;0.97;;;0.97;;
4311;SDS011;2169;49.086;9.284;2022-08-24T11:48:07;2.00;;;0.70;;
4311;SDS011;2169;49.086;9.284;2022-08-24T11:50:44;0.80;;;0.80;;
4311;SDS011;2169;49.086;9.284;2022-08-24T11:53:21;2.87;;;0.80;;
4311;SDS011;2169;49.086;9.284;2022-08-24T11:55:57;1.20;;;0.70;;
4311;SDS011;2169;49.086;9.284;2022-08-24T11:58:37;5.43;;;1.00;;
4311;SDS011;2169;49.086;9.284;2022-08-24T12:01:16;2.00;;;0.90;;
4311;SDS011;2169;49.086;9.284;2022-08-24T12:03:58;2.97;;;1.23;;
4311;SDS011;2169;49.086;9.284;2022-08-24T12:06:38;0.63;;;0.63;;
4311;SDS011;2169;49.086;9.284;2022-08-24T12:09:16;0.70;;;0.70;;
4311;SDS011;2169;49.086;9.284;2022-08-24T12:11:55;2.20;;;0.90;;
4311;SDS011;2169;49.086;9.284;2022-08-24T12:14:31;3.30;;;1.00;;
4311;SDS011;2169;49.086;9.284;2022-08-24T12:17:08;0.67;;;0.67;;
4311;SDS011;2169;49.086;9.284;2022-08-24T12:19:43;1.93;;;0.70;;
4311;SDS011;2169;49.086;9.284;2022-08-24T12:22:13;1.20;;;0.80;;
4311;SDS011;2169;49.086;9.284;2022-08-24T12:24:43;1.23;;;0.90;;
4311;SDS011;2169;49.086;9.284;2022-08-24T12:27:13;0.90;;;0.90;;
4311;SDS011;2169;49.086;9.284;2022-08-24T12:29:44;2.03;;;0.80;;
4311;SDS011;2169;49.086;9.284;2022-08-24T12:32:17;0.57;;;0.57;;
4311;SDS011;2169;49.086;9.284;2022-08-24T12:34:51;2.07;;;0.93;;
4311;SDS011;2169;49.086;9.284;2022-08-24T12:37:22;4.20;;;0.70;;
4311;SDS011;2169;49.086;9.284;2022-08-24T12:39:54;2.33;;;0.93;;
4311;SDS011;2169;49.086;9.284;2022-08-24T12:42:28;0.60;;;0.60;;
4311;SDS011;2169;49.086;9.284;2022-08-24T12:45:02;4.60;;;0.70;;
4311;SDS011;2169;49.086;9.284;2022-08-24T12:47:34;0.93;;;0.93;;
4311;SDS011;2169;49.086;9.284;2022-08-24T12:50:08;1.60;;;0.77;;
4311;SDS011;2169;49.086;9.284;2022-08-24T12:52:46;1.00;;;1.00;;
4311;SDS011;2169;49.086;9.284;2022-08-24T12:55:43;1.53;;;0.73;;
4311;SDS011;2169;49.086;9.284;2022-08-24T12:58:45;0.60;;;0.60;;
4311;SDS011;2169;49.086;9.284;2022-08-24T13:01:25;1.00;;;0.70;;
4311;SDS011;2169;49.086;9.284;2022-08-24T13:06:59;3.07;;;0.90;;
4311;SDS011;2169;49.086;9.284;2022-08-24T13:09:31;1.07;;;0.83;;
4311;SDS011;2169;49.086;9.284;2022-08-24T13:17:44;1.37;;;1.27;;
4311;SDS011;2169;49.086;9.284;2022-08-24T13:20:17;0.60;;;0.60;;
4311;SDS011;2169;49.086;9.284;2022-08-24T13:22:58;0.60;;;0.60;;
4311;SDS011;2169;49.086;9.284;2022-08-24T13:25:40;0.60;;;0.60;;
4311;SDS011;2169;49.086;9.284;2022-08-24T13:31:08;0.70;;;0.70;;
4311;SDS011;2169;49.086;9.284;2022-08-24T13:33:43;0.60;;;0.60;;
4311;SDS011;2169;49.086;9.284;2022-08-24T13:39:38;0.63;;;0.63;;
4311;SDS011;2169;49.086;9.284;2022-08-24T13:42:27;3.03;;;0.70;;
4311;SDS011;2169;49.086;9.284;2022-08-24T13:45:09;0.70;;;0.70;;
4311;SDS011;2169;49.086;9.284;2022-08-24T13:47:46;1.90;;;0.70;;
4311;SDS011;2169;49.086;9.284;2022-08-24T13:50:29;1.60;;;0.83;;
4311;SDS011;2169;49.086;9.284;2022-08-24T13:53:07;0.80;;;0.80;;
4311;SDS011;2169;49.086;9.284;2022-08-24T13:56:17;14.53;;;0.83;;
4311;SDS011;2169;49.086;9.284;2022-08-24T13:59:00;1.73;;;1.17;;
4311;SDS011;2169;49.086;9.284;2022-08-24T14:01:34;0.70;;;0.70;;
4311;SDS011;2169;49.086;9.284;2022-08-24T14:04:15;1.07;;;0.70;;
4311;SDS011;2169;49.086;9.284;2022-08-24T14:06:59;0.80;;;0.50;;
4311;SDS011;2169;49.086;9.284;2022-08-24T14:09:38;0.60;;;0.60;;
4311;SDS011;2169;49.086;9.284;2022-08-24T14:15:06;4.37;;;1.50;;
4311;SDS011;2169;49.086;9.284;2022-08-24T14:17:42;0.90;;;0.80;;
4311;SDS011;2169;49.086;9.284;2022-08-24T14:20:26;1.10;;;1.10;;
4311;SDS011;2169;49.086;9.284;2022-08-24T14:23:19;2.90;;;0.80;;
4311;SDS011;2169;49.086;9.284;2022-08-24T14:28:55;0.60;;;0.60;;
4311;SDS011;2169;49.086;9.284;2022-08-24T14:35:00;1.00;;;0.70;;
4311;SDS011;2169;49.086;9.284;2022-08-24T14:37:46;3.90;;;0.87;;
4311;SDS011;2169;49.086;9.284;2022-08-24T14:40:19;2.57;;;0.60;;
4311;SDS011;2169;49.086;9.284;2022-08-24T14:42:54;7.90;;;1.00;;
4311;SDS011;2169;49.086;9.284;2022-08-24T14:45:25;1.43;;;0.83;;
4311;SDS011;2169;49.086;9.284;2022-08-24T14:48:05;6.87;;;1.00;;
4311;SDS011;2169;49.086;9.284;2022-08-24T14:50:42;0.80;;;0.80;;
4311;SDS011;2169;49.086;9.284;2022-08-24T14:53:21;0.70;;;0.70;;
4311;SDS011;2169;49.086;9.284;2022-08-24T14:56:07;0.80;;;0.80;;
4311;SDS011;2169;49.086;9.284;2022-08-24T14:58:40;0.87;;;0.87;;
4311;SDS011;2169;49.086;9.284;2022-08-24T15:01:31;4.20;;;0.80;;
4311;SDS011;2169;49.086;9.284;2022-08-24T15:04:13;3.13;;;0.90;;
4311;SDS011;2169;49.086;9.284;2022-08-24T15:06:52;1.00;;;0.57;;
4311;SDS011;2169;49.086;9.284;2022-08-24T15:09:24;2.30;;;0.70;;
4311;SDS011;2169;49.086;9.284;2022-08-24T15:11:53;0.70;;;0.70;;
4311;SDS011;2169;49.086;9.284;2022-08-24T15:14:32;1.07;;;0.67;;
4311;SDS011;2169;49.086;9.284;2022-08-24T15:17:06;0.60;;;0.60;;
4311;SDS011;2169;49.086;9.284;2022-08-24T15:19:42;0.70;;;0.50;;
4311;SDS011;2169;49.086;9.284;2022-08-24T15:22:21;0.60;;;0.60;;
4311;SDS011;2169;49.086;9.284;2022-08-24T15:24:54;0.83;;;0.60;;
4311;SDS011;2169;49.086;9.284;2022-08-24T15:27:31;0.97;;;0.63;;
4311;SDS011;2169;49.086;9.284;2022-08-24T15:30:06;0.80;;;0.70;;
4311;SDS011;2169;49.086;9.284;2022-08-24T15:32:45;1.13;;;0.70;;
4311;SDS011;2169;49.086;9.284;2022-08-24T15:35:21;0.70;;;0.70;;
4311;SDS011;2169;49.086;9.284;2022-08-24T15:37:50;1.73;;;0.87;;
4311;SDS011;2169;49.086;9.284;2022-08-24T15:40:20;9.53;;;0.70;;
4311;SDS011;2169;49.086;9.284;2022-08-24T15:42:50;1.43;;;1.10;;
4311;SDS011;2169;49.086;9.284;2022-08-24T15:45:19;2.10;;;0.90;;
4311;SDS011;2169;49.086;9.284;2022-08-24T15:47:48;1.93;;;0.70;;
4311;SDS011;2169;49.086;9.284;2022-08-24T15:50:21;3.60;;;0.90;;
4311;SDS011;2169;49.086;9.284;2022-08-24T15:52:52;0.70;;;0.70;;
4311;SDS011;2169;49.086;9.284;2022-08-24T15:55:34;2.93;;;0.70;;
4311;SDS011;2169;49.086;9.284;2022-08-24T15:58:12;0.83;;;0.80;;
4311;SDS011;2169;49.086;9.284;2022-08-24T16:00:43;0.80;;;0.60;;
4311;SDS011;2169;49.086;9.284;2022-08-24T16:03:41;1.50;;;0.73;;
4311;SDS011;2169;49.086;9.284;2022-08-24T16:06:16;1.67;;;0.60;;
4311;SDS011;2169;49.086;9.284;2022-08-24T16:08:49;0.70;;;0.70;;
4311;SDS011;2169;49.086;9.284;2022-08-24T16:11:25;5.43;;;0.70;;
4311;SDS011;2169;49.086;9.284;2022-08-24T16:13:54;1.97;;;0.80;;
4311;SDS011;2169;49.086;9.284;2022-08-24T16:16:29;2.80;;;0.73;;
4311;SDS011;2169;49.086;9.284;2022-08-24T16:18:59;0.87;;;0.87;;
4311;SDS011;2169;49.086;9.284;2022-08-24T16:21:28;0.87;;;0.87;;
4311;SDS011;2169;49.086;9.284;2022-08-24T16:23:58;2.23;;;2.03;;
4311;SDS011;2169;49.086;9.284;2022-08-24T16:26:28;1.30;;;1.00;;
4311;SDS011;2169;49.086;9.284;2022-08-24T16:28:57;1.97;;;0.67;;
4311;SDS011;2169;49.086;9.284;2022-08-24T16:36:47;0.60;;;0.60;;